createdAt,value
2023-08-11T00:01:47.609Z,101509.78
2023-08-11T00:04:20.148Z,101507.03
2023-08-11T00:06:49.497Z,101500.09
2023-08-11T00:09:19.041Z,101500.78
2023-08-11T00:11:48.711Z,101503.47
2023-08-11T00:14:18.266Z,101505.16
2023-08-11T00:16:47.827Z,101507.47
2023-08-11T00:19:20.086Z,101505.41
2023-08-11T00:21:49.691Z,101502.44
2023-08-11T00:24:19.870Z,101506.25
2023-08-11T00:26:49.431Z,101508.16
2023-08-11T00:29:19.080Z,101513.41
2023-08-11T00:31:49.455Z,101515.94
2023-08-11T00:34:21.856Z,101510.69
2023-08-11T00:36:51.468Z,101518.28
2023-08-11T00:39:21.061Z,101510.47
2023-08-11T00:41:51.382Z,101521.63
2023-08-11T00:44:20.984Z,101519.13
2023-08-11T00:46:51.207Z,101516.16
2023-08-11T00:49:23.539Z,101522.28
2023-08-11T00:51:54.223Z,101508.34
2023-08-11T00:54:25.475Z,101514.03
2023-08-11T00:56:55.397Z,101506.69
2023-08-11T00:59:25.334Z,101506.13
2023-08-11T01:01:55.251Z,101510.34
2023-08-11T01:04:27.443Z,101509.09
2023-08-11T01:07:18.629Z,101512.03
2023-08-11T01:09:55.500Z,101501.88
2023-08-11T01:12:33.282Z,101506.25
2023-08-11T01:15:14.366Z,101502.69
2023-08-11T01:17:45.254Z,101502.25
2023-08-11T01:20:19.741Z,101497.00
2023-08-11T01:22:53.589Z,101497.00
2023-08-11T01:25:27.121Z,101496.16
2023-08-11T01:27:58.964Z,101496.81
2023-08-11T01:30:31.515Z,101496.38
2023-08-11T01:33:01.494Z,101486.66
2023-08-11T01:35:40.913Z,101487.72
2023-08-11T01:38:10.158Z,101486.25
2023-08-11T01:40:43.105Z,101486.72
2023-08-11T01:43:15.423Z,101490.91
2023-08-11T01:45:46.310Z,101488.59
2023-08-11T01:48:18.170Z,101485.41
2023-08-11T01:50:48.261Z,101488.38
2023-08-11T01:53:18.190Z,101481.41
2023-08-11T01:55:51.773Z,101484.84
2023-08-11T01:58:21.356Z,101485.06
2023-08-11T02:00:50.963Z,101479.78
2023-08-11T02:03:21.850Z,101480.84
2023-08-11T02:05:51.555Z,101486.53
2023-08-11T02:08:22.310Z,101480.00
2023-08-11T02:10:54.740Z,101483.78
2023-08-11T02:13:24.361Z,101478.72
2023-08-11T02:15:54.470Z,101482.34
2023-08-11T02:18:24.105Z,101482.75
2023-08-11T02:20:53.702Z,101469.88
2023-08-11T02:23:23.262Z,101467.13
2023-08-11T02:25:55.674Z,101467.22
2023-08-11T02:28:25.522Z,101469.28
2023-08-11T02:30:55.354Z,101466.97
2023-08-11T02:33:24.959Z,101467.38
2023-08-11T02:35:55.249Z,101464.41
2023-08-11T02:38:24.782Z,101455.75
2023-08-11T02:40:56.946Z,101460.41
2023-08-11T02:43:26.630Z,101468.63
2023-08-11T02:45:56.474Z,101457.88
2023-08-11T02:48:26.150Z,101454.69
2023-08-11T02:50:55.744Z,101461.84
2023-08-11T02:53:25.306Z,101457.63
2023-08-11T02:55:57.503Z,101466.50
2023-08-11T02:58:27.365Z,101460.84
2023-08-11T03:00:59.238Z,101457.47
2023-08-11T03:03:30.019Z,101459.16
2023-08-11T03:05:59.760Z,101452.84
2023-08-11T03:08:29.525Z,101452.00
2023-08-11T03:11:01.931Z,101448.91
2023-08-11T03:13:37.056Z,101446.75
2023-08-11T03:16:07.476Z,101449.53
2023-08-11T03:18:37.535Z,101451.22
2023-08-11T03:21:18.535Z,101450.38
2023-08-11T03:23:49.887Z,101459.19
2023-08-11T03:26:22.585Z,101458.16
2023-08-11T03:28:52.213Z,101457.06
2023-08-11T03:31:22.296Z,101452.69
2023-08-11T03:33:54.271Z,101451.00
2023-08-11T03:36:24.016Z,101451.41
2023-08-11T03:38:53.664Z,101454.56
2023-08-11T03:41:26.113Z,101455.81
2023-08-11T03:43:55.832Z,101462.78
2023-08-11T03:46:26.278Z,101472.31
2023-08-11T03:48:56.463Z,101468.09
2023-08-11T03:51:26.092Z,101464.13
2023-08-11T03:53:55.689Z,101459.47
2023-08-11T03:56:29.116Z,101457.78
2023-08-11T03:58:58.563Z,101465.13
2023-08-11T04:01:29.358Z,101454.41
2023-08-11T04:03:58.987Z,101456.75
2023-08-11T04:06:33.857Z,101472.94
2023-08-11T04:09:05.315Z,101462.84
2023-08-11T04:11:37.494Z,101463.72
2023-08-11T04:14:07.195Z,101464.59
2023-08-11T04:16:36.931Z,101470.28
2023-08-11T04:19:06.982Z,101469.25
2023-08-11T04:21:36.580Z,101468.00
2023-08-11T04:24:06.844Z,101467.13
2023-08-11T04:26:39.576Z,101471.16
2023-08-11T04:29:10.348Z,101472.41
2023-08-11T04:31:41.366Z,101473.28
2023-08-11T04:34:11.752Z,101472.63
2023-08-11T04:36:41.431Z,101466.53
2023-08-11T04:39:11.739Z,101469.69
2023-08-11T04:41:44.105Z,101465.69
2023-08-11T04:44:13.696Z,101463.81
2023-08-11T04:46:43.361Z,101466.56
2023-08-11T04:49:13.887Z,101466.75
2023-08-11T04:51:43.498Z,101464.44
2023-08-11T04:54:13.092Z,101467.81
2023-08-11T04:56:45.648Z,101475.81
2023-08-11T04:59:15.126Z,101476.03
2023-08-11T05:01:44.764Z,101470.16
2023-08-11T05:04:14.373Z,101466.97
2023-08-11T05:06:43.952Z,101469.53
2023-08-11T05:09:13.563Z,101469.91
2023-08-11T05:11:45.697Z,101466.78
2023-08-11T05:14:17.065Z,101476.03
2023-08-11T05:16:46.625Z,101471.59
2023-08-11T05:19:16.600Z,101480.25
2023-08-11T05:21:46.140Z,101484.25
2023-08-11T05:24:15.852Z,101482.97
2023-08-11T05:26:48.528Z,101486.56
2023-08-11T05:29:18.077Z,101477.94
2023-08-11T05:31:47.633Z,101484.44
2023-08-11T05:34:17.176Z,101478.53
2023-08-11T05:36:46.957Z,101484.84
2023-08-11T05:39:16.613Z,101472.03
2023-08-11T05:41:48.831Z,101478.53
2023-08-11T05:44:18.385Z,101477.28
2023-08-11T05:46:47.942Z,101471.38
2023-08-11T05:49:17.580Z,101475.16
2023-08-11T05:51:47.125Z,101477.47
2023-08-11T05:54:16.712Z,101479.56
2023-08-11T05:56:48.860Z,101481.25
2023-08-11T05:59:18.408Z,101489.22
2023-08-11T06:01:48.214Z,101487.75
2023-08-11T06:04:17.845Z,101483.75
2023-08-11T06:06:47.477Z,101481.41
2023-08-11T06:09:17.082Z,101485.63
2023-08-11T06:11:49.241Z,101480.34
2023-08-11T06:14:18.867Z,101488.56
2023-08-11T06:16:48.721Z,101486.25
2023-08-11T06:19:18.302Z,101484.78
2023-08-11T06:21:48.600Z,101485.22
2023-08-11T06:24:18.227Z,101478.28
2023-08-11T06:26:50.407Z,101479.53
2023-08-11T06:29:20.161Z,101477.63
2023-08-11T06:31:50.342Z,101481.56
2023-08-11T06:34:21.737Z,101470.00
2023-08-11T06:36:51.457Z,101475.66
2023-08-11T06:39:21.019Z,101476.31
2023-08-11T06:41:53.237Z,101478.59
2023-08-11T06:44:42.798Z,101481.72
2023-08-11T06:47:12.383Z,101477.28
2023-08-11T06:49:41.926Z,101480.03
2023-08-11T06:52:12.874Z,101482.53
2023-08-11T06:54:43.122Z,101486.28
2023-08-11T06:57:15.525Z,101481.81
2023-08-11T06:59:45.113Z,101485.22
2023-08-11T07:02:14.717Z,101492.34
2023-08-11T07:04:44.396Z,101489.81
2023-08-11T07:07:14.056Z,101483.25
2023-08-11T07:09:43.765Z,101494.84
2023-08-11T07:12:16.137Z,101496.91
2023-08-11T07:14:46.094Z,101501.97
2023-08-11T07:17:15.717Z,101498.97
2023-08-11T07:19:45.594Z,101496.16
2023-08-11T07:22:15.212Z,101498.09
2023-08-11T07:24:44.786Z,101499.94
2023-08-11T07:27:19.315Z,101492.09
2023-08-11T07:29:49.258Z,101494.63
2023-08-11T07:32:18.897Z,101490.59
2023-08-11T07:34:48.539Z,101490.78
2023-08-11T07:37:18.144Z,101493.09
2023-08-11T07:39:47.723Z,101494.31
2023-08-11T07:42:19.895Z,101493.66
2023-08-11T07:44:49.464Z,101488.16
2023-08-11T07:47:19.038Z,101494.66
2023-08-11T07:49:48.617Z,101494.81
2023-08-11T07:52:18.824Z,101497.13
2023-08-11T07:54:48.476Z,101500.22
2023-08-11T07:57:20.796Z,101498.94
2023-08-11T07:59:50.412Z,101497.72
2023-08-11T08:02:20.083Z,101489.72
2023-08-11T08:04:49.671Z,101497.53
2023-08-11T08:07:19.257Z,101492.72
2023-08-11T08:09:48.993Z,101496.75
2023-08-11T08:12:21.138Z,101503.94
2023-08-11T08:14:50.767Z,101493.78
2023-08-11T08:17:20.657Z,101495.28
2023-08-11T08:19:51.161Z,101496.53
2023-08-11T08:22:20.904Z,101489.16
2023-08-11T08:24:51.030Z,101494.38
2023-08-11T08:27:25.674Z,101501.72
2023-08-11T08:29:56.045Z,101502.34
2023-08-11T08:32:25.702Z,101492.38
2023-08-11T08:34:55.448Z,101492.13
2023-08-11T08:37:26.042Z,101491.69
2023-08-11T08:39:56.521Z,101495.72
2023-08-11T08:42:29.695Z,101495.44
2023-08-11T08:45:00.770Z,101490.88
2023-08-11T08:47:30.911Z,101492.47
2023-08-11T08:50:03.191Z,101483.91
2023-08-11T08:52:34.025Z,101483.31
2023-08-11T08:55:04.764Z,101488.34
2023-08-11T08:57:37.680Z,101485.97
2023-08-11T09:00:09.237Z,101483.69
2023-08-11T09:02:39.405Z,101486.06
2023-08-11T09:05:10.823Z,101479.97
2023-08-11T09:07:40.403Z,101479.72
2023-08-11T09:10:11.670Z,101479.50
2023-08-11T09:12:46.116Z,101475.06
2023-08-11T09:15:16.821Z,101483.09
2023-08-11T09:17:46.518Z,101472.25
2023-08-11T09:20:20.956Z,101476.28
2023-08-11T09:22:50.635Z,101474.16
2023-08-11T09:25:20.323Z,101472.38
2023-08-11T09:27:55.489Z,101465.16
2023-08-11T09:30:25.062Z,101464.31
2023-08-11T09:32:54.829Z,101457.38
2023-08-11T09:35:27.689Z,101462.56
2023-08-11T09:37:57.543Z,101464.94
2023-08-11T09:40:27.140Z,101463.25
2023-08-11T09:43:00.452Z,101465.69
2023-08-11T09:45:34.512Z,101455.75
2023-08-11T09:48:04.100Z,101460.97
2023-08-11T09:50:37.770Z,101466.84
2023-08-11T09:53:09.148Z,101462.06
2023-08-11T09:55:41.322Z,101464.47
2023-08-11T09:58:16.336Z,101469.13
2023-08-11T10:00:47.266Z,101455.84
2023-08-11T10:03:26.908Z,101454.78
2023-08-11T10:05:58.890Z,101466.59
2023-08-11T10:08:31.121Z,101462.16
2023-08-11T10:11:04.623Z,101457.50
2023-08-11T10:13:37.618Z,101470.66
2023-08-11T10:16:08.521Z,101463.25
2023-08-11T10:18:39.792Z,101467.44
2023-08-11T10:21:09.598Z,101461.50
2023-08-11T10:23:40.425Z,101463.47
2023-08-11T10:26:15.724Z,101463.59
2023-08-11T10:28:48.790Z,101458.16
2023-08-11T10:31:18.418Z,101458.22
2023-08-11T10:33:52.996Z,101454.53
2023-08-11T10:36:25.807Z,101446.75
2023-08-11T10:39:04.825Z,101454.41
2023-08-11T10:41:34.821Z,101449.88
2023-08-11T10:44:08.664Z,101451.34
2023-08-11T10:46:39.709Z,101445.25
2023-08-11T10:49:23.769Z,101447.25
2023-08-11T10:51:55.222Z,101448.59
2023-08-11T10:54:27.786Z,101445.19
2023-08-11T10:56:57.657Z,101446.88
2023-08-11T10:59:32.215Z,101445.19
2023-08-11T11:02:04.684Z,101439.69
2023-08-11T11:04:35.083Z,101446.25
2023-08-11T11:07:08.607Z,101436.34
2023-08-11T11:09:38.311Z,101438.16
2023-08-11T11:12:09.885Z,101427.25
2023-08-11T11:14:42.413Z,101425.13
2023-08-11T11:19:59.205Z,101418.41
2023-08-11T11:22:32.836Z,101419.47
2023-08-11T11:25:04.268Z,101414.31
2023-08-11T11:27:33.848Z,101404.50
2023-08-11T11:30:06.482Z,101407.38
2023-08-11T11:32:36.197Z,101406.66
2023-08-11T11:35:06.792Z,101406.63
2023-08-11T11:37:37.268Z,101408.22
2023-08-11T11:40:10.661Z,101409.16
2023-08-11T11:42:40.328Z,101405.41
2023-08-11T11:45:21.869Z,101408.88
2023-08-11T11:47:54.631Z,101407.19
2023-08-11T11:50:27.010Z,101405.03
2023-08-11T11:52:57.346Z,101408.69
2023-08-11T11:55:27.781Z,101405.06
2023-08-11T11:57:59.718Z,101398.47
2023-08-11T12:00:35.652Z,101401.13
2023-08-11T12:05:48.051Z,101391.75
2023-08-11T12:08:22.347Z,101392.88
2023-08-11T12:10:53.933Z,101389.63
2023-08-11T12:13:23.807Z,101398.84
2023-08-11T12:15:56.081Z,101393.09
2023-08-11T12:18:25.693Z,101400.41
2023-08-11T12:20:55.273Z,101390.28
2023-08-11T12:23:24.832Z,101396.91
2023-08-11T12:25:54.532Z,101399.59
2023-08-11T12:28:24.342Z,101385.56
2023-08-11T12:30:56.592Z,101395.47
2023-08-11T12:33:26.784Z,101387.53
2023-08-11T12:35:56.435Z,101384.53
2023-08-11T12:38:26.211Z,101384.69
2023-08-11T12:40:55.792Z,101384.84
2023-08-11T12:43:25.374Z,101375.56
2023-08-11T12:45:57.624Z,101373.97
2023-08-11T12:48:27.172Z,101365.22
2023-08-11T12:50:56.734Z,101364.53
2023-08-11T12:53:26.265Z,101367.69
2023-08-11T12:55:55.850Z,101364.56
2023-08-11T12:58:25.445Z,101371.44
2023-08-11T13:00:57.653Z,101371.13
2023-08-11T13:03:27.373Z,101370.53
2023-08-11T13:05:56.945Z,101370.09
2023-08-11T13:08:26.505Z,101357.31
2023-08-11T13:10:56.329Z,101354.91
2023-08-11T13:13:25.890Z,101349.09
2023-08-11T13:15:58.065Z,101358.25
2023-08-11T13:18:27.748Z,101363.78
2023-08-11T13:20:57.473Z,101351.97
2023-08-11T13:23:30.213Z,101360.81
2023-08-11T13:26:01.059Z,101347.31
2023-08-11T13:28:35.011Z,101344.03
2023-08-11T13:31:07.423Z,101334.94
2023-08-11T13:33:36.838Z,101348.13
2023-08-11T13:36:06.880Z,101344.84
2023-08-11T13:38:36.413Z,101335.28
2023-08-11T13:43:44.849Z,101337.19
2023-08-11T13:46:17.829Z,101331.13
2023-08-11T13:48:47.435Z,101323.66
2023-08-11T13:51:17.023Z,101325.91
2023-08-11T13:53:49.314Z,101330.16
2023-08-11T13:56:18.856Z,101323.88
2023-08-11T13:58:48.441Z,101317.53
2023-08-11T14:01:20.574Z,101315.88
2023-08-11T14:03:50.196Z,101317.56
2023-08-11T14:06:19.760Z,101312.09
2023-08-11T14:08:49.352Z,101300.50
2023-08-11T14:11:24.211Z,101316.78
2023-08-11T14:13:54.269Z,101303.88
2023-08-11T14:16:26.426Z,101303.59
2023-08-11T14:18:57.022Z,101309.13
2023-08-11T14:21:26.784Z,101310.81
2023-08-11T14:23:56.375Z,101310.88
2023-08-11T14:26:25.948Z,101312.84
2023-08-11T14:28:55.510Z,101306.97
2023-08-11T14:31:27.743Z,101303.13
2023-08-11T14:33:57.426Z,101298.72
2023-08-11T14:36:27.162Z,101291.50
2023-08-11T14:38:56.860Z,101281.81
2023-08-11T14:41:26.457Z,101288.72
2023-08-11T14:43:56.022Z,101283.72
2023-08-11T14:46:28.341Z,101277.16
2023-08-11T14:48:57.726Z,101278.81
2023-08-11T14:51:27.296Z,101274.16
2023-08-11T14:53:56.840Z,101278.56
2023-08-11T14:56:27.658Z,101278.34
2023-08-11T14:58:57.431Z,101277.75
2023-08-11T15:01:29.688Z,101287.75
2023-08-11T15:03:59.105Z,101287.16
2023-08-11T15:06:28.652Z,101279.38
2023-08-11T15:08:58.193Z,101278.81
2023-08-11T15:11:27.868Z,101271.94
2023-08-11T15:13:57.593Z,101274.41
2023-08-11T15:16:29.972Z,101267.75
2023-08-11T15:18:59.774Z,101258.53
2023-08-11T15:21:29.536Z,101257.16
2023-08-11T15:23:59.301Z,101262.94
2023-08-11T15:26:29.394Z,101248.56
2023-08-11T15:29:00.851Z,101261.09
2023-08-11T15:31:36.007Z,101252.22
2023-08-11T15:34:07.061Z,101250.59
2023-08-11T15:36:36.922Z,101242.56
2023-08-11T15:39:08.070Z,101253.63
2023-08-11T15:41:37.730Z,101244.19
2023-08-11T15:44:07.817Z,101245.59
2023-08-11T15:46:40.234Z,101237.00
2023-08-11T15:49:09.907Z,101239.69
2023-08-11T15:51:39.569Z,101234.16
2023-08-11T15:54:09.273Z,101236.16
2023-08-11T15:56:38.929Z,101237.00
2023-08-11T15:59:09.225Z,101232.56
2023-08-11T16:01:45.827Z,101230.56
2023-08-11T16:04:22.290Z,101227.28
2023-08-11T16:06:52.260Z,101222.84
2023-08-11T16:09:22.223Z,101224.25
2023-08-11T16:11:53.966Z,101214.53
2023-08-11T16:17:05.716Z,101227.56
2023-08-11T16:19:36.213Z,101222.56
2023-08-11T16:22:05.802Z,101223.16
2023-08-11T16:24:35.506Z,101220.66
2023-08-11T16:27:05.106Z,101233.66
2023-08-11T16:29:39.492Z,101227.88
2023-08-11T16:32:12.069Z,101227.00
2023-08-11T16:34:41.951Z,101228.09
2023-08-11T16:37:11.469Z,101226.94
2023-08-11T16:39:41.567Z,101229.72
2023-08-11T16:42:11.360Z,101226.09
2023-08-11T16:44:42.698Z,101228.03
2023-08-11T16:47:14.873Z,101224.16
2023-08-11T16:49:44.460Z,101224.13
2023-08-11T16:52:14.289Z,101218.84
2023-08-11T16:54:43.861Z,101223.00
2023-08-11T16:57:14.160Z,101216.63
2023-08-11T16:59:43.734Z,101214.41
2023-08-11T17:02:15.932Z,101216.66
2023-08-11T17:04:45.349Z,101211.94
2023-08-11T17:07:14.906Z,101218.00
2023-08-11T17:09:44.478Z,101203.88
2023-08-11T17:12:14.453Z,101210.50
2023-08-11T17:14:44.262Z,101209.13
2023-08-11T17:17:16.418Z,101214.91
2023-08-11T17:19:45.992Z,101213.50
2023-08-11T17:22:15.760Z,101211.88
2023-08-11T17:24:45.317Z,101215.72
2023-08-11T17:27:14.923Z,101202.13
2023-08-11T17:29:46.125Z,101201.56
2023-08-11T17:32:18.406Z,101207.13
2023-08-11T17:37:23.978Z,101205.72
2023-08-11T17:39:54.121Z,101206.81
2023-08-11T17:42:23.825Z,101201.81
2023-08-11T17:44:53.378Z,101207.63
2023-08-11T17:47:25.526Z,101209.00
2023-08-11T17:49:55.146Z,101206.50
2023-08-11T17:52:24.688Z,101213.72
2023-08-11T17:54:54.422Z,101212.03
2023-08-11T17:57:24.097Z,101216.44
2023-08-11T17:59:53.893Z,101216.72
2023-08-11T18:02:26.159Z,101211.44
2023-08-11T18:04:55.612Z,101217.50
2023-08-11T18:07:25.209Z,101213.09
2023-08-11T18:09:54.975Z,101211.41
2023-08-11T18:12:27.417Z,101211.66
2023-08-11T18:14:58.612Z,101211.66
2023-08-11T18:17:30.770Z,101210.00
2023-08-11T18:20:00.351Z,101214.94
2023-08-11T18:22:33.782Z,101209.13
2023-08-11T18:25:04.973Z,101208.81
2023-08-11T18:27:34.728Z,101214.59
2023-08-11T18:30:05.225Z,101204.91
2023-08-11T18:32:37.386Z,101214.31
2023-08-11T18:35:08.070Z,101200.75
2023-08-11T18:37:37.625Z,101215.66
2023-08-11T18:40:08.494Z,101203.22
2023-08-11T18:42:38.138Z,101203.50
2023-08-11T18:45:09.133Z,101204.03
2023-08-11T18:47:41.405Z,101197.34
2023-08-11T18:50:11.425Z,101203.41
2023-08-11T18:52:41.006Z,101205.59
2023-08-11T18:55:11.478Z,101205.59
2023-08-11T18:57:41.076Z,101206.72
2023-08-11T19:00:13.929Z,101214.69
2023-08-11T19:02:46.432Z,101210.84
2023-08-11T19:05:16.150Z,101211.94
2023-08-11T19:07:45.698Z,101217.16
2023-08-11T19:10:15.768Z,101211.06
2023-08-11T19:12:45.382Z,101210.75
2023-08-11T19:15:14.982Z,101217.06
2023-08-11T19:17:47.245Z,101217.88
2023-08-11T19:20:16.936Z,101212.56
2023-08-11T19:22:46.546Z,101215.63
2023-08-11T19:25:16.141Z,101214.78
2023-08-11T19:27:45.832Z,101207.88
2023-08-11T19:30:15.643Z,101212.34
2023-08-11T19:32:47.781Z,101212.28
2023-08-11T19:35:17.368Z,101207.84
2023-08-11T19:37:47.071Z,101199.56
2023-08-11T19:40:16.633Z,101208.94
2023-08-11T19:42:46.244Z,101199.25
2023-08-11T19:45:15.778Z,101202.00
2023-08-11T19:47:48.004Z,101200.63
2023-08-11T19:50:17.430Z,101202.78
2023-08-11T19:52:46.971Z,101191.97
2023-08-11T19:55:16.556Z,101199.72
2023-08-11T19:57:46.108Z,101194.72
2023-08-11T20:00:17.049Z,101190.25
2023-08-11T20:02:51.234Z,101197.16
2023-08-11T20:05:20.886Z,101195.75
2023-08-11T20:07:50.549Z,101187.16
2023-08-11T20:10:20.901Z,101188.22
2023-08-11T20:12:51.162Z,101188.19
2023-08-11T20:15:21.336Z,101198.66
2023-08-11T20:17:53.571Z,101179.84
2023-08-11T20:20:23.110Z,101186.47
2023-08-11T20:22:52.692Z,101187.25
2023-08-11T20:25:22.290Z,101186.09
2023-08-11T20:27:51.983Z,101189.97
2023-08-11T20:30:21.690Z,101190.75
2023-08-11T20:32:54.204Z,101192.94
2023-08-11T20:35:23.783Z,101187.66
2023-08-11T20:37:50.995Z,101182.66
2023-08-11T20:40:20.591Z,101182.09
2023-08-11T20:42:50.148Z,101177.97
2023-08-11T20:45:19.883Z,101180.69
2023-08-11T20:47:49.518Z,101182.28
2023-08-11T20:50:22.028Z,101178.13
2023-08-11T20:52:51.761Z,101183.88
2023-08-11T20:55:21.702Z,101178.31
2023-08-11T20:57:52.161Z,101184.41
2023-08-11T21:00:21.777Z,101180.25
2023-08-11T21:02:51.332Z,101179.69
2023-08-11T21:05:23.565Z,101176.06
2023-08-11T21:07:53.134Z,101178.00
2023-08-11T21:10:23.017Z,101179.59
2023-08-11T21:12:52.594Z,101183.13
2023-08-11T21:15:22.528Z,101181.66
2023-08-11T21:17:54.222Z,101186.66
2023-08-11T21:20:26.534Z,101179.78
2023-08-11T21:22:56.254Z,101178.91
2023-08-11T21:25:25.868Z,101183.81
2023-08-11T21:27:55.532Z,101173.56
2023-08-11T21:30:25.125Z,101170.47
2023-08-11T21:32:54.759Z,101170.16
2023-08-11T21:35:26.979Z,101171.50
2023-08-11T21:37:56.676Z,101172.53
2023-08-11T21:40:26.357Z,101170.28
2023-08-11T21:42:55.981Z,101162.53
2023-08-11T21:45:25.654Z,101171.94
2023-08-11T21:47:55.415Z,101166.69
2023-08-11T21:50:27.694Z,101167.19
2023-08-11T21:52:59.777Z,101161.69
2023-08-11T21:55:33.602Z,101152.84
2023-08-11T21:58:04.566Z,101155.09
2023-08-11T22:00:37.077Z,101147.03
2023-08-11T22:03:07.291Z,101145.63
2023-08-11T22:05:39.538Z,101146.66
2023-08-11T22:08:09.380Z,101146.56
2023-08-11T22:10:39.412Z,101149.09
2023-08-11T22:13:09.412Z,101136.88
2023-08-11T22:15:39.049Z,101137.41
2023-08-11T22:18:08.819Z,101142.84
2023-08-11T22:20:41.108Z,101138.41
2023-08-11T22:23:10.789Z,101146.38
2023-08-11T22:25:40.406Z,101140.16
2023-08-11T22:28:10.013Z,101140.28
2023-08-11T22:30:40.048Z,101135.19
2023-08-11T22:33:11.318Z,101133.50
2023-08-11T22:35:45.059Z,101139.59
2023-08-11T22:38:15.254Z,101143.44
2023-08-11T22:40:44.927Z,101134.84
2023-08-11T22:43:14.762Z,101131.19
2023-08-11T22:45:44.500Z,101136.44
2023-08-11T22:48:14.161Z,101131.50
2023-08-11T22:50:46.361Z,101125.06
2023-08-11T22:53:15.932Z,101127.00
2023-08-11T22:55:45.495Z,101127.19
2023-08-11T22:58:15.309Z,101128.59
2023-08-11T23:00:45.022Z,101126.25
2023-08-11T23:03:14.639Z,101125.94
2023-08-11T23:05:46.998Z,101117.09
2023-08-11T23:08:16.664Z,101111.91
2023-08-11T23:10:46.288Z,101114.59
2023-08-11T23:13:16.353Z,101114.84
2023-08-11T23:15:45.981Z,101116.75
2023-08-11T23:18:15.594Z,101123.59
2023-08-11T23:20:47.708Z,101124.69
2023-08-11T23:23:17.334Z,101116.91
2023-08-11T23:25:46.889Z,101116.59
2023-08-11T23:28:16.503Z,101117.94
2023-08-11T23:30:46.059Z,101116.16
2023-08-11T23:33:16.490Z,101113.41
2023-08-11T23:35:48.732Z,101111.78
2023-08-11T23:38:18.887Z,101110.94
2023-08-11T23:40:48.473Z,101114.53
2023-08-11T23:43:18.759Z,101110.16
2023-08-11T23:45:48.380Z,101103.22
2023-08-11T23:48:18.487Z,101101.88
2023-08-11T23:50:50.838Z,101110.94
2023-08-11T23:53:20.404Z,101097.81
2023-08-11T23:55:50.253Z,101097.75
2023-08-11T23:58:19.875Z,101103.97
